Time;durP1;ratioP1;P1;durP2;ratioP2;P2;SDS_P1;SDS_P2;PMS_P1;PMS_P2;Temp;Humidity;BMP_temperature;BMP_pressure;BME280_temperature;BME280_humidity;BME280_pressure;Samples;Min_cycle;Max_cycle;Signal;HPM_P1;HPM_P2
2022/09/02 00:01:18;;;;;;;6.88;6.18;;;;;;;14.25;75.35;98376.03;7387276;19;20014;-72
2022/09/02 00:03:46;;;;;;;8.20;5.78;;;;;;;14.23;75.30;98369.25;7387696;19;20401;-74
2022/09/02 00:06:13;;;;;;;8.48;6.07;;;;;;;14.19;75.71;98373.25;7385785;19;20024;-72
2022/09/02 00:08:40;;;;;;;7.30;6.55;;;;;;;14.15;75.63;98367.47;7384720;19;20078;-72
2022/09/02 00:11:12;;;;;;;8.10;6.80;;;;;;;14.13;76.01;98360.69;7383311;19;20014;-73
2022/09/02 00:13:39;;;;;;;7.55;6.78;;;;;;;14.12;75.86;98364.38;7384288;19;20028;-74
2022/09/02 00:16:06;;;;;;;7.45;6.30;;;;;;;14.07;76.15;98364.06;7387163;19;20015;-73
2022/09/02 00:18:32;;;;;;;6.78;6.07;;;;;;;14.03;76.36;98353.78;7386430;19;20526;-72
2022/09/02 00:21:01;;;;;;;6.43;5.80;;;;;;;14.08;76.48;98357.72;7391809;19;20049;-71
2022/09/02 00:23:27;;;;;;;6.68;6.07;;;;;;;14.08;76.10;98349.75;7393698;19;20018;-71
2022/09/02 00:25:54;;;;;;;6.50;5.90;;;;;;;14.08;75.45;98352.41;7391975;19;20018;-73
2022/09/02 00:28:21;;;;;;;6.25;5.75;;;;;;;14.04;75.10;98352.78;7386939;19;20026;-73
2022/09/02 00:30:49;;;;;;;5.90;5.40;;;;;;;14.02;75.58;98348.63;7394187;19;20081;-72
2022/09/02 00:33:16;;;;;;;7.57;5.68;;;;;;;14.00;75.64;98348.78;7395441;19;20014;-73
2022/09/02 00:35:43;;;;;;;6.65;5.97;;;;;;;13.97;76.00;98338.53;7392505;19;20013;-72
2022/09/02 00:38:10;;;;;;;6.50;5.90;;;;;;;13.93;76.06;98342.56;7392104;19;20015;-71
2022/09/02 00:40:37;;;;;;;7.50;6.10;;;;;;;13.91;76.09;98341.91;7393676;19;20077;-75
2022/09/02 00:43:06;;;;;;;9.50;5.88;;;;;;;13.89;76.51;98338.59;7392699;19;20022;-71
2022/09/02 00:45:35;;;;;;;8.98;6.05;;;;;;;13.93;76.77;98337.25;7386952;19;20025;-73
2022/09/02 00:48:04;;;;;;;6.47;5.82;;;;;;;13.86;76.80;98336.28;7391711;19;20011;-72
2022/09/02 00:50:34;;;;;;;5.45;4.97;;;;;;;13.85;77.25;98334.66;7392957;19;20019;-71
2022/09/02 00:53:08;;;;;;;6.22;5.63;;;;;;;13.87;77.44;98326.47;7392794;19;20106;-73
2022/09/02 00:55:40;;;;;;;5.93;5.43;;;;;;;13.79;76.92;98335.34;7393640;19;20027;-74
2022/09/02 00:58:20;;;;;;;5.85;5.30;;;;;;;13.73;77.13;98336.06;7392114;19;20022;-72
2022/09/02 01:00:48;;;;;;;6.25;5.60;;;;;;;13.64;76.93;98329.97;7390419;19;20039;-72
2022/09/02 01:03:18;;;;;;;7.45;5.13;;;;;;;13.56;77.06;98332.66;7385599;19;20064;-72
2022/09/02 01:05:47;;;;;;;8.85;6.35;;;;;;;13.52;77.13;98339.34;7386682;19;20026;-72
2022/09/02 01:08:21;;;;;;;7.43;6.03;;;;;;;13.52;77.47;98339.34;7389756;19;20074;-71
2022/09/02 01:10:48;;;;;;;7.72;6.22;;;;;;;13.53;77.28;98339.19;7391863;19;20022;-71
2022/09/02 01:13:18;;;;;;;6.45;5.80;;;;;;;13.47;77.35;98344.34;7393325;19;20014;-73
2022/09/02 01:15:52;;;;;;;8.32;6.28;;;;;;;13.46;77.50;98338.22;7390683;19;20098;-73
2022/09/02 01:18:27;;;;;;;9.65;6.95;;;;;;;13.48;77.69;98344.19;7384690;19;20078;-73
2022/09/02 01:20:55;;;;;;;8.90;6.55;;;;;;;13.51;77.62;98340.34;7388941;19;20074;-71
2022/09/02 01:23:22;;;;;;;9.65;7.80;;;;;;;13.46;77.65;98338.22;7390570;19;20094;-72
2022/09/02 01:25:50;;;;;;;11.18;6.68;;;;;;;13.40;77.82;98338.88;7389909;19;20007;-74
2022/09/02 01:28:18;;;;;;;7.18;5.72;;;;;;;13.42;77.78;98344.03;7390295;19;20006;-71
2022/09/02 01:30:48;;;;;;;6.82;5.82;;;;;;;13.40;77.46;98336.22;7390254;19;20022;-72
2022/09/02 01:33:17;;;;;;;7.15;6.28;;;;;;;13.34;77.22;98337.75;7390322;19;20450;-71
2022/09/02 01:35:44;;;;;;;6.72;6.03;;;;;;;13.27;77.41;98331.50;7385647;19;20010;-72
2022/09/02 01:38:11;;;;;;;7.65;6.75;;;;;;;13.22;77.45;98335.63;7386384;19;21851;-71
2022/09/02 01:40:38;;;;;;;8.20;6.47;;;;;;;13.17;77.48;98334.34;7392504;19;20465;-72
2022/09/02 01:43:17;;;;;;;7.10;6.03;;;;;;;13.14;77.82;98329.38;7390903;19;20035;-71
2022/09/02 01:45:48;;;;;;;6.18;5.65;;;;;;;13.07;77.78;98325.75;7387240;19;20021;-74
2022/09/02 01:48:15;;;;;;;6.97;6.25;;;;;;;12.94;78.28;98328.13;7387754;19;20013;-72
2022/09/02 01:51:00;;;;;;;6.70;6.03;;;;;;;12.99;78.05;98327.63;7387886;19;20040;-72
2022/09/02 01:53:27;;;;;;;6.20;5.47;;;;;;;13.02;77.91;98322.78;7385289;19;20078;-72
2022/09/02 01:55:54;;;;;;;5.88;5.22;;;;;;;12.99;77.87;98328.44;7390099;19;20142;-72
2022/09/02 01:58:26;;;;;;;7.97;5.70;;;;;;;12.98;77.84;98332.09;7385021;19;20018;-74
2022/09/02 02:00:53;;;;;;;5.88;5.25;;;;;;;12.95;78.10;98332.44;7386641;19;20490;-71
2022/09/02 02:03:23;;;;;;;5.65;4.97;;;;;;;12.93;77.75;98331.78;7387748;19;20025;-73
2022/09/02 02:05:50;;;;;;;6.03;5.38;;;;;;;12.94;77.84;98328.13;7389200;19;20367;-72
2022/09/02 02:08:18;;;;;;;6.40;5.70;;;;;;;12.90;78.07;98330.31;7381385;19;20023;-72
2022/09/02 02:10:46;;;;;;;7.25;5.47;;;;;;;12.86;78.20;98333.47;7386531;19;20017;-71
2022/09/02 02:13:13;;;;;;;6.60;5.97;;;;;;;12.86;78.13;98325.50;7388973;19;20552;-73
2022/09/02 02:15:42;;;;;;;6.57;5.88;;;;;;;12.81;77.86;98326.00;7389702;19;20357;-73
2022/09/02 02:18:09;;;;;;;7.00;5.57;;;;;;;12.82;78.19;98332.16;7384257;19;20018;-72
2022/09/02 02:20:37;;;;;;;8.82;5.43;;;;;;;12.77;78.12;98326.53;7391587;19;20677;-71
2022/09/02 02:23:04;;;;;;;6.55;5.95;;;;;;;12.66;77.95;98325.88;7390467;19;20021;-72
2022/09/02 02:25:31;;;;;;;6.53;5.78;;;;;;;12.62;78.47;98327.25;7382972;19;20021;-71
2022/09/02 02:27:58;;;;;;;7.95;5.43;;;;;;;12.54;78.54;98329.91;7384676;19;20073;-72
2022/09/02 02:30:25;;;;;;;8.18;5.53;;;;;;;12.51;78.47;98330.25;7385533;19;20422;-71
2022/09/02 02:32:52;;;;;;;6.63;6.03;;;;;;;12.55;78.73;98331.56;7387987;19;20018;-72
2022/09/02 02:35:20;;;;;;;6.55;5.63;;;;;;;12.57;78.14;98326.91;7388576;19;20022;-72
2022/09/02 02:37:49;;;;;;;7.00;5.70;;;;;;;12.58;78.28;98328.56;7387575;19;20034;-72
2022/09/02 02:40:19;;;;;;;6.97;6.28;;;;;;;12.54;78.29;98324.59;7384621;19;20427;-71
2022/09/02 02:42:47;;;;;;;7.10;5.75;;;;;;;12.53;78.45;98322.94;7382387;19;20018;-72
2022/09/02 02:45:14;;;;;;;6.28;5.68;;;;;;;12.56;78.30;98324.41;7385128;19;20018;-71
2022/09/02 02:47:44;;;;;;;6.20;5.57;;;;;;;12.50;78.49;98328.56;7386272;19;20069;-72
2022/09/02 02:50:15;;;;;;;8.15;5.88;;;;;;;12.44;78.90;98323.97;7386560;19;20035;-73
2022/09/02 02:52:43;;;;;;;7.32;5.97;;;;;;;12.38;78.87;98322.81;7387150;19;20343;-71
2022/09/02 02:55:12;;;;;;;7.20;5.15;;;;;;;12.33;78.95;98319.84;7386219;19;20025;-72
2022/09/02 02:57:40;;;;;;;8.13;5.05;;;;;;;12.22;79.63;98322.84;7383193;19;20010;-72
2022/09/02 03:00:14;;;;;;;7.20;5.47;;;;;;;12.19;79.73;98324.00;7382163;19;20014;-74
2022/09/02 03:02:41;;;;;;;6.63;5.10;;;;;;;12.17;79.66;98323.34;7386343;19;21134;-71
2022/09/02 03:05:10;;;;;;;6.47;5.15;;;;;;;12.21;79.35;98321.16;7384897;19;20018;-72
2022/09/02 03:07:38;;;;;;;6.85;5.53;;;;;;;12.21;79.42;98314.03;7386076;19;20098;-75
2022/09/02 03:10:09;;;;;;;6.38;5.78;;;;;;;12.18;79.75;98317.03;7384571;19;20039;-74
2022/09/02 03:12:38;;;;;;;5.97;4.88;;;;;;;12.23;79.59;98311.22;7386010;19;20078;-72
2022/09/02 03:15:10;;;;;;;6.20;5.40;;;;;;;12.28;79.53;98317.69;7381390;19;20018;-72
2022/09/02 03:17:39;;;;;;;7.13;4.82;;;;;;;12.27;79.42;98316.03;7383347;19;20033;-75
2022/09/02 03:20:06;;;;;;;5.63;4.97;;;;;;;12.24;79.31;98313.72;7385820;19;20502;-72
2022/09/02 03:22:37;;;;;;;5.28;4.78;;;;;;;12.08;79.62;98313.72;7384829;19;20010;-72
2022/09/02 03:25:08;;;;;;;5.72;4.53;;;;;;;12.02;79.49;98317.03;7386184;19;20022;-72
2022/09/02 03:27:37;;;;;;;5.38;4.88;;;;;;;12.07;79.60;98312.06;7383748;19;20018;-73
2022/09/02 03:30:07;;;;;;;4.53;4.13;;;;;;;12.09;79.31;98312.72;7383258;19;20549;-73
2022/09/02 03:32:34;;;;;;;4.88;4.38;;;;;;;12.12;79.04;98312.41;7382166;19;20010;-73
2022/09/02 03:35:06;;;;;;;4.85;4.40;;;;;;;12.07;79.08;98312.88;7383889;19;20025;-71
2022/09/02 03:37:35;;;;;;;4.57;4.10;;;;;;;12.07;79.08;98309.41;7385216;19;20015;-71
2022/09/02 03:40:04;;;;;;;5.95;4.82;;;;;;;12.17;78.90;98311.91;7384013;19;20374;-72
2022/09/02 03:42:32;;;;;;;4.85;4.18;;;;;;;12.12;79.00;98312.41;7384926;19;20470;-72
2022/09/02 03:44:59;;;;;;;4.88;4.22;;;;;;;12.18;79.11;98318.84;7385367;19;20364;-72
2022/09/02 03:47:28;;;;;;;6.88;4.38;;;;;;;12.22;78.92;98313.06;7383778;19;20014;-72
2022/09/02 03:49:56;;;;;;;4.47;4.03;;;;;;;12.24;78.59;98320.81;7379053;19;20022;-73
2022/09/02 03:52:24;;;;;;;6.07;4.13;;;;;;;12.29;78.43;98313.19;7382541;19;20037;-71
2022/09/02 03:54:51;;;;;;;5.57;4.00;;;;;;;12.36;78.36;98305.41;7385948;19;20029;-74
2022/09/02 03:57:21;;;;;;;4.47;4.07;;;;;;;12.37;77.75;98310.53;7396359;19;20014;-71
2022/09/02 03:59:49;;;;;;;4.93;4.20;;;;;;;12.32;77.54;98306.72;7396981;19;20578;-72
2022/09/02 04:02:15;;;;;;;4.40;3.83;;;;;;;12.29;77.75;98310.53;7399712;19;20027;-72
2022/09/02 04:04:43;;;;;;;4.22;3.83;;;;;;;12.33;77.74;98309.22;7399039;19;20699;-73
2022/09/02 04:07:10;;;;;;;5.55;4.68;;;;;;;12.25;77.64;98303.94;7390160;19;20040;-72
2022/09/02 04:09:37;;;;;;;5.13;3.97;;;;;;;12.25;77.82;98307.41;7397185;19;20066;-71
2022/09/02 04:12:04;;;;;;;4.22;3.83;;;;;;;12.18;77.86;98313.53;7405776;19;20014;-71
2022/09/02 04:14:31;;;;;;;4.35;3.95;;;;;;;12.20;78.05;98314.22;7398679;19;20014;-73
2022/09/02 04:16:58;;;;;;;5.93;3.60;;;;;;;12.18;77.93;98308.25;7399124;19;20115;-72
2022/09/02 04:19:25;;;;;;;5.72;4.03;;;;;;;12.17;77.88;98306.59;7395061;19;20854;-72
2022/09/02 04:21:52;;;;;;;5.18;4.68;;;;;;;12.14;77.91;98305.09;7395813;19;20014;-72
2022/09/02 04:24:18;;;;;;;4.38;3.90;;;;;;;12.11;78.08;98305.41;7396184;19;20014;-72
2022/09/02 04:26:48;;;;;;;4.28;3.83;;;;;;;12.10;77.76;98305.59;7396012;19;20014;-72
2022/09/02 04:29:16;;;;;;;7.07;4.13;;;;;;;12.11;78.24;98305.41;7390917;19;20022;-72
2022/09/02 04:31:46;;;;;;;4.32;3.92;;;;;;;12.05;78.20;98304.25;7396421;19;20024;-72
2022/09/02 04:34:13;;;;;;;5.55;4.15;;;;;;;12.03;78.54;98302.78;7394779;19;20014;-72
2022/09/02 04:36:41;;;;;;;5.53;4.70;;;;;;;11.94;78.16;98298.47;7394274;19;20010;-72
2022/09/02 04:39:09;;;;;;;6.22;4.82;;;;;;;11.92;78.28;98300.47;7388156;19;20037;-74
2022/09/02 04:41:37;;;;;;;7.70;5.22;;;;;;;11.83;78.33;98296.97;7392868;19;20420;-71
2022/09/02 04:44:07;;;;;;;9.50;4.97;;;;;;;11.86;78.26;98301.97;7394959;19;20400;-72
2022/09/02 04:46:37;;;;;;;5.28;4.70;;;;;;;11.90;78.34;98299.78;7395110;19;20411;-72
2022/09/02 04:49:07;;;;;;;5.63;4.68;;;;;;;11.90;78.66;98305.09;7394134;19;20503;-75
2022/09/02 04:51:36;;;;;;;4.43;4.00;;;;;;;11.94;78.45;98304.59;7397768;19;20090;-72
2022/09/02 04:54:05;;;;;;;4.30;3.72;;;;;;;12.02;78.23;98301.94;7393824;19;20022;-72
2022/09/02 04:56:32;;;;;;;4.20;3.80;;;;;;;12.07;77.98;98304.09;7391138;19;20029;-72
2022/09/02 04:59:01;;;;;;;5.30;3.95;;;;;;;12.11;78.05;98305.41;7394366;19;20026;-73
2022/09/02 05:01:32;;;;;;;5.47;4.10;;;;;;;12.16;77.55;98303.09;7397391;19;20018;-72
2022/09/02 05:04:08;;;;;;;5.47;3.90;;;;;;;12.21;77.60;98310.56;7395939;19;20056;-72
2022/09/02 05:06:40;;;;;;;5.00;4.47;;;;;;;12.28;77.43;98307.06;7391541;19;20039;-73
2022/09/02 05:09:14;;;;;;;4.63;3.85;;;;;;;12.29;76.87;98315.84;7388109;19;20023;-73
2022/09/02 05:11:41;;;;;;;5.30;4.80;;;;;;;12.29;76.82;98311.38;7385298;19;20010;-74
2022/09/02 05:14:08;;;;;;;5.10;4.28;;;;;;;12.40;76.69;98310.22;7387937;19;20003;-71
2022/09/02 05:16:39;;;;;;;4.60;4.10;;;;;;;12.46;76.68;98311.34;7387690;19;20021;-73
2022/09/02 05:19:12;;;;;;;7.13;4.07;;;;;;;12.48;76.13;98299.56;7388918;19;20010;-71
2022/09/02 05:21:45;;;;;;;6.18;3.95;;;;;;;12.47;76.27;98302.38;7389403;19;20018;-71
2022/09/02 05:24:21;;;;;;;4.47;4.07;;;;;;;12.54;76.64;98316.63;7390345;19;20025;-71
2022/09/02 05:26:53;;;;;;;5.65;4.15;;;;;;;12.53;75.76;98307.00;7385520;19;20089;-71
2022/09/02 05:29:19;;;;;;;4.32;3.65;;;;;;;12.60;75.79;98308.00;7383574;19;20074;-73
2022/09/02 05:31:47;;;;;;;4.18;3.55;;;;;;;12.65;75.35;98310.97;7387916;19;20018;-71
2022/09/02 05:34:15;;;;;;;4.25;3.85;;;;;;;12.68;75.29;98313.28;7389025;19;20056;-71
2022/09/02 05:36:42;;;;;;;4.05;3.72;;;;;;;12.73;75.63;98310.94;7385523;19;20102;-75
2022/09/02 05:39:09;;;;;;;6.97;3.67;;;;;;;12.83;75.46;98316.06;7384858;19;20014;-72
2022/09/02 05:41:37;;;;;;;3.90;3.60;;;;;;;12.84;75.41;98307.09;7388235;19;20078;-71
2022/09/02 05:44:05;;;;;;;6.30;4.47;;;;;;;12.89;75.55;98306.56;7387655;19;20023;-71
2022/09/02 05:46:33;;;;;;;4.47;4.07;;;;;;;12.88;74.81;98312.91;7382344;19;20108;-71
2022/09/02 05:49:05;;;;;;;5.30;4.28;;;;;;;12.94;74.69;98304.22;7383835;19;20644;-72
2022/09/02 05:51:45;;;;;;;4.78;3.72;;;;;;;12.95;73.99;98304.06;7389156;19;20021;-73
2022/09/02 05:54:18;;;;;;;4.80;3.85;;;;;;;12.91;74.15;98307.22;7386352;19;20052;-73
2022/09/02 05:56:48;;;;;;;4.97;4.20;;;;;;;13.00;74.05;98311.50;7386992;19;20022;-72
2022/09/02 05:59:17;;;;;;;6.47;4.40;;;;;;;13.11;74.42;98307.63;7384717;19;20015;-71
2022/09/02 06:01:45;;;;;;;5.18;3.38;;;;;;;13.26;73.58;98316.56;7384690;19;20014;-72
2022/09/02 06:04:11;;;;;;;3.95;3.42;;;;;;;13.36;73.57;98308.38;7384109;19;20473;-72
2022/09/02 06:06:39;;;;;;;4.65;4.10;;;;;;;13.51;71.89;98311.94;7382596;19;20525;-71
2022/09/02 06:09:09;;;;;;;4.28;3.88;;;;;;;13.61;72.00;98307.22;7385543;19;20481;-73
2022/09/02 06:11:43;;;;;;;5.68;3.35;;;;;;;13.79;71.94;98319.38;7389176;19;20016;-72
2022/09/02 06:14:14;;;;;;;7.57;3.58;;;;;;;13.89;71.09;98312.00;7383742;19;20017;-73
2022/09/02 06:16:42;;;;;;;4.45;3.70;;;;;;;13.98;70.85;98305.63;7382287;19;20014;-73
2022/09/02 06:19:17;;;;;;;5.25;3.25;;;;;;;14.03;70.67;98311.22;7382494;19;20048;-72
2022/09/02 06:21:48;;;;;;;4.20;3.50;;;;;;;14.16;71.23;98312.44;7387008;19;20022;-72
2022/09/02 06:24:15;;;;;;;5.22;3.65;;;;;;;14.29;70.44;98307.31;7383818;19;20010;-72
2022/09/02 06:26:42;;;;;;;6.32;3.40;;;;;;;14.42;70.79;98302.19;7383635;19;20473;-73
2022/09/02 06:29:10;;;;;;;4.20;3.15;;;;;;;14.58;70.93;98308.41;7386183;19;20018;-73
2022/09/02 06:31:40;;;;;;;3.88;3.47;;;;;;;14.66;70.30;98302.97;7385195;19;20355;-73
2022/09/02 06:34:11;;;;;;;4.55;3.92;;;;;;;14.78;70.78;98300.69;7386262;19;20015;-72
2022/09/02 06:36:39;;;;;;;4.70;3.37;;;;;;;14.87;70.19;98297.72;7376155;19;20505;-72
2022/09/02 06:39:12;;;;;;;4.72;3.70;;;;;;;14.97;69.57;98297.47;7382180;19;20022;-73
2022/09/02 06:41:41;;;;;;;5.50;3.50;;;;;;;15.02;68.96;98299.56;7383863;19;20014;-72
2022/09/02 06:44:10;;;;;;;4.90;3.30;;;;;;;15.12;68.67;98302.78;7383065;19;20033;-72
2022/09/02 06:46:46;;;;;;;4.20;3.47;;;;;;;15.25;68.64;98296.78;7382711;19;20010;-72
2022/09/02 06:49:15;;;;;;;4.50;3.15;;;;;;;15.29;67.57;98298.88;7384550;19;20022;-72
2022/09/02 06:51:46;;;;;;;4.15;3.05;;;;;;;15.31;67.10;98304.84;7382265;19;20647;-73
2022/09/02 06:54:16;;;;;;;4.50;3.13;;;;;;;15.31;69.23;98306.69;7384277;19;20038;-73
2022/09/02 06:56:48;;;;;;;;;;;;;;;15.38;68.28;98307.59;7385952;19;20039;-73
2022/09/02 06:59:22;;;;;;;3.63;2.63;;;;;;;15.59;67.11;98312.13;7387320;19;20288;-73
2022/09/02 07:01:55;;;;;;;3.92;3.45;;;;;;;15.72;66.37;98308.81;7388453;19;20052;-74
2022/09/02 07:07:12;;;;;;;3.70;2.72;;;;;;;16.03;64.78;98295.09;7384719;19;20022;-73
2022/09/02 07:09:44;;;;;;;3.28;2.80;;;;;;;16.14;64.85;98293.75;7382217;19;20026;-73
2022/09/02 07:12:16;;;;;;;4.80;3.30;;;;;;;16.13;65.71;98292.13;7384954;19;20018;-73
2022/09/02 07:14:51;;;;;;;3.85;2.70;;;;;;;16.16;63.60;98289.88;7387554;19;20097;-75
2022/09/02 07:17:24;;;;;;;4.35;2.50;;;;;;;16.21;63.56;98290.13;7386899;19;20014;-72
2022/09/02 07:19:59;;;;;;;4.45;2.47;;;;;;;16.33;64.47;98294.94;7385878;19;20466;-73
2022/09/02 07:22:28;;;;;;;3.25;2.60;;;;;;;16.46;63.90;98295.03;7386559;19;20022;-75
2022/09/02 07:24:56;;;;;;;3.33;2.65;;;;;;;16.58;63.87;98292.63;7384125;19;20090;-75
2022/09/02 07:27:24;;;;;;;3.00;2.35;;;;;;;16.61;62.33;98284.22;7380623;19;20074;-72
2022/09/02 07:29:55;;;;;;;4.68;2.17;;;;;;;16.68;64.01;98282.44;7382336;19;20014;-72
2022/09/02 07:32:22;;;;;;;3.55;2.50;;;;;;;16.70;65.20;98280.38;7387084;19;20024;-73
2022/09/02 07:34:49;;;;;;;3.83;2.28;;;;;;;16.85;63.67;98277.59;7385870;19;20022;-74
2022/09/02 07:37:16;;;;;;;3.17;2.65;;;;;;;16.98;61.80;98274.16;7385800;19;20034;-73
2022/09/02 07:39:44;;;;;;;2.97;2.03;;;;;;;17.18;60.54;98282.28;7383770;19;20380;-73
2022/09/02 07:42:13;;;;;;;1.70;1.60;;;;;;;17.30;60.68;98280.69;7382464;19;20021;-73
2022/09/02 07:44:40;;;;;;;3.03;2.60;;;;;;;17.37;62.94;98275.34;7383341;19;20074;-76
2022/09/02 07:47:08;;;;;;;3.42;2.20;;;;;;;17.45;60.47;98269.81;7383533;19;20630;-73
2022/09/02 07:49:38;;;;;;;3.85;2.28;;;;;;;17.59;60.31;98271.50;7385761;19;20021;-73
2022/09/02 07:52:25;;;;;;;5.10;1.90;;;;;;;17.70;59.20;98267.41;7385454;19;20785;-73
2022/09/02 07:54:53;;;;;;;2.85;1.90;;;;;;;17.86;60.72;98275.06;7384860;19;20132;-73
2022/09/02 07:57:20;;;;;;;4.82;2.60;;;;;;;17.96;61.53;98267.44;7383326;19;20035;-72
2022/09/02 07:59:47;;;;;;;2.72;1.83;;;;;;;18.05;60.72;98267.22;7380765;19;20090;-72
2022/09/02 08:02:16;;;;;;;2.38;1.98;;;;;;;18.17;56.92;98265.59;7384849;19;20028;-72
2022/09/02 08:04:44;;;;;;;2.40;1.80;;;;;;;18.41;57.10;98261.44;7383124;19;20086;-73
2022/09/02 08:07:11;;;;;;;4.35;2.40;;;;;;;18.57;57.96;98262.84;7381716;19;20027;-71
2022/09/02 08:09:38;;;;;;;5.80;1.85;;;;;;;18.69;55.82;98261.16;7385992;19;20018;-72
2022/09/02 08:12:05;;;;;;;2.20;1.73;;;;;;;18.98;56.15;98269.75;7386771;19;20018;-72
2022/09/02 08:14:32;;;;;;;1.85;1.73;;;;;;;19.06;57.59;98272.19;7383305;19;20014;-73
2022/09/02 08:16:59;;;;;;;4.45;2.00;;;;;;;19.14;57.51;98271.97;7381512;19;20019;-73
2022/09/02 08:19:26;;;;;;;2.38;1.80;;;;;;;19.18;56.25;98273.16;7383656;19;20038;-72
2022/09/02 08:21:54;;;;;;;1.83;1.55;;;;;;;19.41;55.94;98269.97;7387736;19;20010;-73
2022/09/02 08:24:20;;;;;;;5.03;1.92;;;;;;;19.63;51.93;98273.13;7387748;19;20018;-73
2022/09/02 08:26:47;;;;;;;7.13;1.70;;;;;;;19.80;52.96;98269.94;7381538;19;20017;-72
2022/09/02 08:29:14;;;;;;;2.47;1.60;;;;;;;19.82;53.48;98276.75;7385607;19;20019;-73
2022/09/02 08:31:41;;;;;;;2.53;1.40;;;;;;;19.93;53.91;98272.53;7385242;19;20009;-73
2022/09/02 08:34:08;;;;;;;2.75;1.73;;;;;;;19.85;51.95;98270.97;7382981;19;20014;-72
2022/09/02 08:36:35;;;;;;;3.13;1.63;;;;;;;20.04;52.92;98261.09;7385791;19;20019;-72
2022/09/02 08:39:03;;;;;;;3.03;2.00;;;;;;;20.03;51.87;98264.81;7386469;19;20098;-73
2022/09/02 08:41:36;;;;;;;1.83;1.30;;;;;;;20.05;51.80;98252.00;7383797;19;20018;-73
2022/09/02 08:44:04;;;;;;;5.90;1.60;;;;;;;20.05;51.54;98272.66;7391722;19;20017;-73
2022/09/02 08:46:32;;;;;;;4.53;1.20;;;;;;;20.05;49.66;98268.09;7391653;19;20568;-72
2022/09/02 08:49:03;;;;;;;1.73;1.30;;;;;;;20.34;49.17;98261.22;7383901;19;20529;-73
2022/09/02 08:51:37;;;;;;;3.33;1.58;;;;;;;20.26;50.43;98256.16;7390507;19;20359;-73
2022/09/02 08:54:09;;;;;;;2.88;1.55;;;;;;;20.17;49.63;98260.16;7392623;19;20034;-73
2022/09/02 08:56:37;;;;;;;1.58;1.40;;;;;;;20.46;50.79;98247.91;7390186;19;20086;-73
2022/09/02 08:59:05;;;;;;;3.85;1.45;;;;;;;20.57;49.96;98257.13;7388093;19;20025;-72
2022/09/02 09:02:01;;;;;;;3.03;1.52;;;;;;;20.76;49.48;98248.00;7392620;19;20485;-72
2022/09/02 09:04:52;;;;;;;4.80;1.48;;;;;;;20.70;48.75;98240.03;7390292;19;20014;-73
2022/09/02 09:07:19;;;;;;;4.72;1.40;;;;;;;21.01;49.33;98245.25;7383790;19;20015;-73
2022/09/02 09:10:06;;;;;;;2.70;1.23;;;;;;;20.91;46.51;98236.88;7390224;19;20435;-73
2022/09/02 09:12:42;;;;;;;1.83;1.30;;;;;;;20.69;47.92;98238.38;7388944;19;20021;-73
2022/09/02 09:15:51;;;;;;;2.40;1.30;;;;;;;20.85;48.95;98235.06;7389907;19;20021;-73
2022/09/02 09:18:20;;;;;;;2.63;1.45;;;;;;;21.01;46.80;98234.47;7391260;19;20022;-73
2022/09/02 09:20:47;;;;;;;3.00;1.00;;;;;;;20.95;47.17;98238.06;7387910;19;20010;-73
2022/09/02 09:23:29;;;;;;;3.60;1.40;;;;;;;21.09;46.51;98224.44;7386346;19;20025;-73
2022/09/02 09:26:16;;;;;;;1.50;1.25;;;;;;;21.09;47.35;98240.56;7391054;19;20024;-73
2022/09/02 09:28:46;;;;;;;8.52;1.30;;;;;;;21.31;46.49;98222.09;7387983;19;20366;-73
2022/09/02 09:31:16;;;;;;;2.72;1.10;;;;;;;20.97;46.78;98227.91;7388688;19;20090;-73
2022/09/02 09:34:07;;;;;;;2.97;1.73;;;;;;;20.93;46.41;98209.75;7391637;19;20007;-74
2022/09/02 09:36:41;;;;;;;2.05;1.27;;;;;;;20.96;45.98;98212.00;7389618;19;20029;-73
2022/09/02 09:39:17;;;;;;;1.67;1.20;;;;;;;20.92;46.42;98217.00;7386162;19;20023;-73
2022/09/02 09:41:46;;;;;;;1.63;1.10;;;;;;;20.96;45.71;98212.81;7387106;19;20478;-73
2022/09/02 09:44:37;;;;;;;1.95;1.33;;;;;;;21.07;46.50;98216.63;7388876;19;20014;-73
2022/09/02 09:47:09;;;;;;;5.03;1.42;;;;;;;21.39;45.41;98208.34;7389524;19;20099;-72
2022/09/02 09:49:42;;;;;;;2.13;1.13;;;;;;;21.34;46.64;98210.88;7390094;19;20018;-73
2022/09/02 09:52:09;;;;;;;3.55;1.05;;;;;;;20.95;44.59;98203.09;7392115;19;20103;-74
2022/09/02 09:54:36;;;;;;;1.25;1.00;;;;;;;21.19;44.89;98219.34;7389702;19;20006;-73
2022/09/02 09:57:19;;;;;;;0.70;0.70;;;;;;;21.57;41.87;98210.97;7384738;19;20021;-73
2022/09/02 09:59:48;;;;;;;2.90;1.10;;;;;;;21.71;40.20;98203.50;7387635;19;20371;-74
2022/09/02 10:02:23;;;;;;;2.85;1.08;;;;;;;21.38;42.36;98204.84;7389483;19;20015;-73
2022/09/02 10:04:52;;;;;;;2.08;1.20;;;;;;;21.26;42.83;98206.63;7390200;19;20422;-74
2022/09/02 10:07:39;;;;;;;1.90;1.15;;;;;;;21.25;43.52;98194.22;7386881;19;21286;-73
2022/09/02 10:10:21;;;;;;;1.30;0.97;;;;;;;21.25;43.37;98202.31;7389185;19;20021;-74
2022/09/02 10:12:50;;;;;;;1.45;1.00;;;;;;;21.32;41.54;98203.00;7385584;19;20034;-74
2022/09/02 10:15:26;;;;;;;1.80;1.13;;;;;;;21.13;41.83;98186.09;7388443;19;20042;-74
2022/09/02 10:18:04;;;;;;;1.83;1.30;;;;;;;21.21;43.69;98193.84;7386992;19;20021;-75
2022/09/02 10:20:49;;;;;;;5.25;1.15;;;;;;;21.41;44.48;98193.59;7388486;19;20021;-74
2022/09/02 10:24:09;;;;;;;3.05;1.10;;;;;;;21.30;42.95;98182.75;7387018;19;20007;-73
2022/09/02 10:26:42;;;;;;;3.42;1.15;;;;;;;21.25;40.66;98180.78;7388984;19;20011;-74
2022/09/02 10:29:34;;;;;;;1.05;0.90;;;;;;;21.09;41.15;98170.66;7382776;19;20011;-75
2022/09/02 10:32:22;;;;;;;3.58;1.20;;;;;;;21.36;42.58;98181.88;7386927;19;21570;-74
2022/09/02 10:35:10;;;;;;;3.50;1.25;;;;;;;21.57;41.55;98181.34;7388020;19;20011;-75
2022/09/02 10:37:55;;;;;;;2.25;1.10;;;;;;;21.41;41.63;98173.94;7387702;19;20376;-74
2022/09/02 10:40:34;;;;;;;1.20;1.10;;;;;;;21.26;40.15;98171.66;7391012;19;20017;-74
2022/09/02 10:43:05;;;;;;;1.00;0.80;;;;;;;21.41;40.07;98172.06;7387103;19;20373;-74
2022/09/02 10:45:49;;;;;;;1.73;1.10;;;;;;;21.40;41.30;98162.34;7382420;19;20015;-75
2022/09/02 10:48:46;;;;;;;1.48;0.98;;;;;;;21.32;41.44;98151.88;7382419;19;20019;-74
2022/09/02 10:51:24;;;;;;;1.88;1.05;;;;;;;21.45;41.94;98162.47;7387263;19;20358;-73
2022/09/02 10:54:08;;;;;;;1.88;0.98;;;;;;;21.72;37.96;98147.75;7390118;19;20046;-73
2022/09/02 10:56:44;;;;;;;0.85;0.77;;;;;;;21.87;40.69;98148.13;7388819;19;20011;-74
2022/09/02 10:59:29;;;;;;;2.15;0.98;;;;;;;22.02;40.27;98144.97;7384930;19;20723;-75
2022/09/02 11:02:42;;;;;;;1.65;0.90;;;;;;;21.96;41.10;98138.66;7383853;19;20018;-74
2022/09/02 11:05:26;;;;;;;2.38;1.20;;;;;;;21.66;39.61;98139.56;7382762;19;20019;-75
2022/09/02 11:07:55;;;;;;;1.20;1.05;;;;;;;21.37;39.94;98143.94;7387323;19;20015;-74
2022/09/02 11:10:39;;;;;;;2.80;1.02;;;;;;;21.36;39.99;98131.56;7388600;19;20018;-75
2022/09/02 11:13:23;;;;;;;2.67;1.20;;;;;;;21.45;40.02;98130.19;7386447;19;20015;-74
2022/09/02 11:15:56;;;;;;;4.20;1.20;;;;;;;21.64;39.00;98122.84;7387040;19;20010;-75
2022/09/02 11:18:59;;;;;;;1.13;0.80;;;;;;;21.58;39.92;98114.88;7386419;19;20086;-73
2022/09/02 11:21:29;;;;;;;3.10;1.05;;;;;;;21.71;39.27;98122.72;7381482;19;20018;-74
2022/09/02 11:24:06;;;;;;;0.93;0.93;;;;;;;21.67;40.20;98114.31;7387801;19;20022;-74
2022/09/02 11:26:40;;;;;;;1.92;0.90;;;;;;;21.92;36.67;98111.34;7384375;19;20362;-73
2022/09/02 11:29:17;;;;;;;1.10;1.00;;;;;;;21.97;35.81;98112.53;7384251;19;20118;-74
2022/09/02 11:31:50;;;;;;;0.98;0.93;;;;;;;21.91;39.57;98111.59;7386217;19;20480;-74
2022/09/02 11:34:33;;;;;;;2.60;1.00;;;;;;;22.08;39.90;98109.00;7386751;19;20021;-74
2022/09/02 11:37:03;;;;;;;1.70;0.90;;;;;;;22.25;35.72;98109.09;7382780;19;20093;-73
2022/09/02 11:39:40;;;;;;;3.47;0.98;;;;;;;22.20;39.27;98109.84;7384207;19;20014;-74
2022/09/02 11:42:42;;;;;;;1.90;1.35;;;;;;;22.10;39.66;98107.72;7386572;19;20359;-74
2022/09/02 11:45:13;;;;;;;2.25;1.33;;;;;;;22.10;38.70;98101.50;7385529;19;20010;-75
2022/09/02 11:48:12;;;;;;;3.30;1.10;;;;;;;21.77;38.61;98113.69;7379906;19;20548;-74
2022/09/02 11:50:54;;;;;;;1.27;0.93;;;;;;;21.72;39.45;98096.59;7384816;19;20025;-74
2022/09/02 11:53:25;;;;;;;2.50;1.00;;;;;;;21.75;40.55;98110.44;7381630;19;20485;-74
2022/09/02 11:56:01;;;;;;;1.60;1.08;;;;;;;21.68;39.28;98102.47;7385534;19;20031;-75
2022/09/02 11:58:33;;;;;;;1.67;1.20;;;;;;;21.66;39.47;98104.56;7386711;19;20532;-74